sensor_id;sensor_type;location;lat;lon;timestamp;P1;durP1;ratioP1;P2;durP2;ratioP2
6207;SDS011;3137;51.550;7.060;2023-08-01T00:00:45;3.60;;;3.60;;
6207;SDS011;3137;51.550;7.060;2023-08-01T00:03:11;3.10;;;3.10;;
6207;SDS011;3137;51.550;7.060;2023-08-01T00:05:39;3.57;;;3.30;;
6207;SDS011;3137;51.550;7.060;2023-08-01T00:08:11;4.27;;;2.97;;
6207;SDS011;3137;51.550;7.060;2023-08-01T00:10:41;3.27;;;3.27;;
6207;SDS011;3137;51.550;7.060;2023-08-01T00:13:07;4.03;;;3.83;;
6207;SDS011;3137;51.550;7.060;2023-08-01T00:15:35;4.97;;;4.77;;
6207;SDS011;3137;51.550;7.060;2023-08-01T00:18:02;4.77;;;4.67;;
6207;SDS011;3137;51.550;7.060;2023-08-01T00:20:28;4.10;;;4.00;;
6207;SDS011;3137;51.550;7.060;2023-08-01T00:22:55;3.30;;;3.30;;
6207;SDS011;3137;51.550;7.060;2023-08-01T00:25:21;3.13;;;1.93;;
6207;SDS011;3137;51.550;7.060;2023-08-01T00:27:47;1.67;;;1.67;;
6207;SDS011;3137;51.550;7.060;2023-08-01T00:30:14;1.40;;;1.40;;
6207;SDS011;3137;51.550;7.060;2023-08-01T00:32:41;1.50;;;1.40;;
6207;SDS011;3137;51.550;7.060;2023-08-01T00:35:08;1.60;;;1.50;;
6207;SDS011;3137;51.550;7.060;2023-08-01T00:37:34;1.03;;;1.03;;
6207;SDS011;3137;51.550;7.060;2023-08-01T00:40:01;1.20;;;1.20;;
6207;SDS011;3137;51.550;7.060;2023-08-01T00:42:28;1.20;;;1.20;;
6207;SDS011;3137;51.550;7.060;2023-08-01T00:44:54;1.50;;;1.50;;
6207;SDS011;3137;51.550;7.060;2023-08-01T00:47:21;1.40;;;1.40;;
6207;SDS011;3137;51.550;7.060;2023-08-01T00:49:47;1.20;;;1.20;;
6207;SDS011;3137;51.550;7.060;2023-08-01T00:52:14;1.70;;;1.50;;
6207;SDS011;3137;51.550;7.060;2023-08-01T00:54:40;1.57;;;1.57;;
6207;SDS011;3137;51.550;7.060;2023-08-01T00:57:07;1.77;;;1.77;;
6207;SDS011;3137;51.550;7.060;2023-08-01T00:59:34;1.80;;;1.80;;
6207;SDS011;3137;51.550;7.060;2023-08-01T01:02:01;1.57;;;1.57;;
6207;SDS011;3137;51.550;7.060;2023-08-01T01:04:28;4.53;;;2.10;;
6207;SDS011;3137;51.550;7.060;2023-08-01T01:07:00;2.20;;;1.40;;
6207;SDS011;3137;51.550;7.060;2023-08-01T01:09:29;1.90;;;1.90;;
6207;SDS011;3137;51.550;7.060;2023-08-01T01:11:59;1.70;;;1.70;;
6207;SDS011;3137;51.550;7.060;2023-08-01T01:14:26;1.83;;;1.83;;
6207;SDS011;3137;51.550;7.060;2023-08-01T01:16:53;3.50;;;1.60;;
6207;SDS011;3137;51.550;7.060;2023-08-01T01:19:20;1.63;;;1.53;;
6207;SDS011;3137;51.550;7.060;2023-08-01T01:21:47;1.67;;;1.67;;
6207;SDS011;3137;51.550;7.060;2023-08-01T01:24:14;2.50;;;2.17;;
6207;SDS011;3137;51.550;7.060;2023-08-01T01:26:42;1.97;;;1.97;;
6207;SDS011;3137;51.550;7.060;2023-08-01T01:29:09;2.27;;;2.27;;
6207;SDS011;3137;51.550;7.060;2023-08-01T01:31:37;1.90;;;1.83;;
6207;SDS011;3137;51.550;7.060;2023-08-01T01:34:04;1.93;;;1.93;;
6207;SDS011;3137;51.550;7.060;2023-08-01T01:36:31;1.93;;;1.93;;
6207;SDS011;3137;51.550;7.060;2023-08-01T01:38:57;2.00;;;2.00;;
6207;SDS011;3137;51.550;7.060;2023-08-01T01:41:24;1.77;;;1.73;;
6207;SDS011;3137;51.550;7.060;2023-08-01T01:43:51;2.00;;;1.90;;
6207;SDS011;3137;51.550;7.060;2023-08-01T01:46:18;1.57;;;1.57;;
6207;SDS011;3137;51.550;7.060;2023-08-01T01:48:44;2.00;;;2.00;;
6207;SDS011;3137;51.550;7.060;2023-08-01T01:51:11;3.03;;;1.70;;
6207;SDS011;3137;51.550;7.060;2023-08-01T01:53:37;2.83;;;1.73;;
6207;SDS011;3137;51.550;7.060;2023-08-01T01:56:03;1.43;;;1.43;;
6207;SDS011;3137;51.550;7.060;2023-08-01T01:58:30;3.33;;;1.53;;
6207;SDS011;3137;51.550;7.060;2023-08-01T02:00:56;1.80;;;1.70;;
6207;SDS011;3137;51.550;7.060;2023-08-01T02:03:23;2.30;;;2.20;;
6207;SDS011;3137;51.550;7.060;2023-08-01T02:05:49;3.03;;;1.77;;
6207;SDS011;3137;51.550;7.060;2023-08-01T02:08:16;2.10;;;2.10;;
6207;SDS011;3137;51.550;7.060;2023-08-01T02:10:43;1.93;;;1.93;;
6207;SDS011;3137;51.550;7.060;2023-08-01T02:13:09;2.20;;;2.20;;
6207;SDS011;3137;51.550;7.060;2023-08-01T02:15:36;2.53;;;2.53;;
6207;SDS011;3137;51.550;7.060;2023-08-01T02:18:02;2.20;;;2.13;;
6207;SDS011;3137;51.550;7.060;2023-08-01T02:20:29;2.03;;;2.03;;
6207;SDS011;3137;51.550;7.060;2023-08-01T02:22:55;2.10;;;2.10;;
6207;SDS011;3137;51.550;7.060;2023-08-01T02:25:22;5.90;;;3.00;;
6207;SDS011;3137;51.550;7.060;2023-08-01T02:27:48;2.87;;;2.67;;
6207;SDS011;3137;51.550;7.060;2023-08-01T02:30:15;13.13;;;4.00;;
6207;SDS011;3137;51.550;7.060;2023-08-01T02:32:42;5.93;;;5.40;;
6207;SDS011;3137;51.550;7.060;2023-08-01T02:35:09;5.87;;;5.63;;
6207;SDS011;3137;51.550;7.060;2023-08-01T02:37:35;5.50;;;5.13;;
6207;SDS011;3137;51.550;7.060;2023-08-01T02:40:02;6.27;;;5.97;;
6207;SDS011;3137;51.550;7.060;2023-08-01T02:42:34;7.43;;;6.80;;
6207;SDS011;3137;51.550;7.060;2023-08-01T02:45:00;12.03;;;7.47;;
6207;SDS011;3137;51.550;7.060;2023-08-01T02:47:27;6.90;;;6.40;;
6207;SDS011;3137;51.550;7.060;2023-08-01T02:49:53;8.33;;;7.43;;
6207;SDS011;3137;51.550;7.060;2023-08-01T02:52:20;8.57;;;7.90;;
6207;SDS011;3137;51.550;7.060;2023-08-01T02:54:46;9.23;;;7.10;;
6207;SDS011;3137;51.550;7.060;2023-08-01T02:57:12;7.90;;;7.40;;
6207;SDS011;3137;51.550;7.060;2023-08-01T02:59:39;11.70;;;7.60;;
6207;SDS011;3137;51.550;7.060;2023-08-01T03:02:05;9.97;;;9.03;;
6207;SDS011;3137;51.550;7.060;2023-08-01T03:04:32;8.23;;;7.73;;
6207;SDS011;3137;51.550;7.060;2023-08-01T03:07:12;9.90;;;8.90;;
6207;SDS011;3137;51.550;7.060;2023-08-01T03:09:38;10.50;;;9.67;;
6207;SDS011;3137;51.550;7.060;2023-08-01T03:12:04;11.47;;;9.30;;
6207;SDS011;3137;51.550;7.060;2023-08-01T03:14:31;10.87;;;8.57;;
6207;SDS011;3137;51.550;7.060;2023-08-01T03:16:58;10.63;;;9.63;;
6207;SDS011;3137;51.550;7.060;2023-08-01T03:19:24;11.77;;;9.73;;
6207;SDS011;3137;51.550;7.060;2023-08-01T03:21:51;10.20;;;9.40;;
6207;SDS011;3137;51.550;7.060;2023-08-01T03:24:17;11.03;;;9.73;;
6207;SDS011;3137;51.550;7.060;2023-08-01T03:26:43;10.47;;;9.57;;
6207;SDS011;3137;51.550;7.060;2023-08-01T03:29:10;10.93;;;10.13;;
6207;SDS011;3137;51.550;7.060;2023-08-01T03:31:36;12.03;;;10.93;;
6207;SDS011;3137;51.550;7.060;2023-08-01T03:34:03;12.77;;;11.07;;
6207;SDS011;3137;51.550;7.060;2023-08-01T03:36:29;11.97;;;10.83;;
6207;SDS011;3137;51.550;7.060;2023-08-01T03:38:56;11.37;;;10.10;;
6207;SDS011;3137;51.550;7.060;2023-08-01T03:41:22;14.33;;;11.50;;
6207;SDS011;3137;51.550;7.060;2023-08-01T03:43:49;11.30;;;10.47;;
6207;SDS011;3137;51.550;7.060;2023-08-01T03:46:15;13.30;;;11.70;;
6207;SDS011;3137;51.550;7.060;2023-08-01T03:48:41;15.20;;;11.33;;
6207;SDS011;3137;51.550;7.060;2023-08-01T03:51:09;16.30;;;11.07;;
6207;SDS011;3137;51.550;7.060;2023-08-01T03:53:35;17.87;;;11.80;;
6207;SDS011;3137;51.550;7.060;2023-08-01T03:56:02;13.33;;;11.47;;
6207;SDS011;3137;51.550;7.060;2023-08-01T03:58:29;15.80;;;12.10;;
6207;SDS011;3137;51.550;7.060;2023-08-01T04:00:55;20.20;;;10.63;;
6207;SDS011;3137;51.550;7.060;2023-08-01T04:03:22;15.83;;;11.53;;
6207;SDS011;3137;51.550;7.060;2023-08-01T04:05:48;16.83;;;12.37;;
6207;SDS011;3137;51.550;7.060;2023-08-01T04:08:15;24.07;;;11.80;;
6207;SDS011;3137;51.550;7.060;2023-08-01T04:10:41;13.57;;;12.17;;
6207;SDS011;3137;51.550;7.060;2023-08-01T04:13:08;15.63;;;12.10;;
6207;SDS011;3137;51.550;7.060;2023-08-01T04:15:34;13.93;;;12.03;;
6207;SDS011;3137;51.550;7.060;2023-08-01T04:18:00;13.97;;;10.73;;
6207;SDS011;3137;51.550;7.060;2023-08-01T04:20:27;14.37;;;11.73;;
6207;SDS011;3137;51.550;7.060;2023-08-01T04:22:53;18.03;;;12.90;;
6207;SDS011;3137;51.550;7.060;2023-08-01T04:25:20;12.23;;;10.93;;
6207;SDS011;3137;51.550;7.060;2023-08-01T04:27:47;16.80;;;12.43;;
6207;SDS011;3137;51.550;7.060;2023-08-01T04:30:13;16.23;;;11.70;;
6207;SDS011;3137;51.550;7.060;2023-08-01T04:32:39;21.40;;;11.17;;
6207;SDS011;3137;51.550;7.060;2023-08-01T04:35:06;17.97;;;12.57;;
6207;SDS011;3137;51.550;7.060;2023-08-01T04:37:32;25.00;;;12.43;;
6207;SDS011;3137;51.550;7.060;2023-08-01T04:39:59;29.67;;;14.27;;
6207;SDS011;3137;51.550;7.060;2023-08-01T04:42:25;20.43;;;12.80;;
6207;SDS011;3137;51.550;7.060;2023-08-01T04:44:52;21.80;;;13.87;;
6207;SDS011;3137;51.550;7.060;2023-08-01T04:47:18;27.50;;;14.33;;
6207;SDS011;3137;51.550;7.060;2023-08-01T04:49:45;20.93;;;14.03;;
6207;SDS011;3137;51.550;7.060;2023-08-01T04:52:12;28.80;;;14.00;;
6207;SDS011;3137;51.550;7.060;2023-08-01T04:54:38;26.00;;;14.87;;
6207;SDS011;3137;51.550;7.060;2023-08-01T04:57:05;32.47;;;13.90;;
6207;SDS011;3137;51.550;7.060;2023-08-01T04:59:31;26.87;;;14.17;;
6207;SDS011;3137;51.550;7.060;2023-08-01T05:01:58;24.83;;;13.83;;
6207;SDS011;3137;51.550;7.060;2023-08-01T05:04:25;32.07;;;14.13;;
6207;SDS011;3137;51.550;7.060;2023-08-01T05:06:51;23.43;;;14.90;;
6207;SDS011;3137;51.550;7.060;2023-08-01T05:09:18;31.67;;;15.13;;
6207;SDS011;3137;51.550;7.060;2023-08-01T05:11:44;50.20;;;15.83;;
6207;SDS011;3137;51.550;7.060;2023-08-01T05:14:10;19.33;;;14.30;;
6207;SDS011;3137;51.550;7.060;2023-08-01T05:16:37;20.73;;;14.70;;
6207;SDS011;3137;51.550;7.060;2023-08-01T05:19:04;21.87;;;13.70;;
6207;SDS011;3137;51.550;7.060;2023-08-01T05:21:30;33.07;;;14.30;;
6207;SDS011;3137;51.550;7.060;2023-08-01T05:23:57;23.67;;;14.23;;
6207;SDS011;3137;51.550;7.060;2023-08-01T05:26:24;32.67;;;14.47;;
6207;SDS011;3137;51.550;7.060;2023-08-01T05:28:50;23.40;;;14.63;;
6207;SDS011;3137;51.550;7.060;2023-08-01T05:31:17;25.40;;;14.70;;
6207;SDS011;3137;51.550;7.060;2023-08-01T05:33:43;22.93;;;14.03;;
6207;SDS011;3137;51.550;7.060;2023-08-01T05:36:10;18.53;;;14.70;;
6207;SDS011;3137;51.550;7.060;2023-08-01T05:38:36;26.77;;;15.00;;
6207;SDS011;3137;51.550;7.060;2023-08-01T05:41:03;24.07;;;15.97;;
6207;SDS011;3137;51.550;7.060;2023-08-01T05:43:29;24.17;;;15.43;;
6207;SDS011;3137;51.550;7.060;2023-08-01T05:45:56;27.97;;;17.07;;
6207;SDS011;3137;51.550;7.060;2023-08-01T05:48:22;23.50;;;15.07;;
6207;SDS011;3137;51.550;7.060;2023-08-01T05:50:49;22.03;;;15.07;;
6207;SDS011;3137;51.550;7.060;2023-08-01T05:53:15;22.30;;;15.23;;
6207;SDS011;3137;51.550;7.060;2023-08-01T05:55:42;23.40;;;15.40;;
6207;SDS011;3137;51.550;7.060;2023-08-01T05:58:08;21.27;;;15.73;;
6207;SDS011;3137;51.550;7.060;2023-08-01T06:00:34;24.30;;;15.65;;
6207;SDS011;3137;51.550;7.060;2023-08-01T06:03:01;20.27;;;15.80;;
6207;SDS011;3137;51.550;7.060;2023-08-01T06:05:28;26.20;;;16.17;;
6207;SDS011;3137;51.550;7.060;2023-08-01T06:07:54;28.07;;;16.50;;
6207;SDS011;3137;51.550;7.060;2023-08-01T06:10:21;32.33;;;15.93;;
6207;SDS011;3137;51.550;7.060;2023-08-01T06:12:48;22.37;;;14.07;;
6207;SDS011;3137;51.550;7.060;2023-08-01T06:15:14;30.27;;;14.63;;
6207;SDS011;3137;51.550;7.060;2023-08-01T06:17:41;31.60;;;16.93;;
6207;SDS011;3137;51.550;7.060;2023-08-01T06:20:08;23.13;;;16.63;;
6207;SDS011;3137;51.550;7.060;2023-08-01T06:22:35;27.53;;;15.83;;
6207;SDS011;3137;51.550;7.060;2023-08-01T06:25:01;26.37;;;15.27;;
6207;SDS011;3137;51.550;7.060;2023-08-01T06:27:27;24.07;;;15.60;;
6207;SDS011;3137;51.550;7.060;2023-08-01T06:29:54;23.37;;;16.90;;
6207;SDS011;3137;51.550;7.060;2023-08-01T06:32:20;29.43;;;15.63;;
6207;SDS011;3137;51.550;7.060;2023-08-01T06:34:47;20.97;;;15.60;;
6207;SDS011;3137;51.550;7.060;2023-08-01T06:37:13;35.93;;;16.20;;
6207;SDS011;3137;51.550;7.060;2023-08-01T06:39:39;21.33;;;16.00;;
6207;SDS011;3137;51.550;7.060;2023-08-01T06:42:06;35.93;;;16.20;;
6207;SDS011;3137;51.550;7.060;2023-08-01T06:44:32;26.80;;;15.73;;
6207;SDS011;3137;51.550;7.060;2023-08-01T06:46:59;26.30;;;15.90;;
6207;SDS011;3137;51.550;7.060;2023-08-01T06:49:26;35.23;;;16.13;;
6207;SDS011;3137;51.550;7.060;2023-08-01T06:51:52;25.73;;;15.97;;
6207;SDS011;3137;51.550;7.060;2023-08-01T06:54:19;25.97;;;15.90;;
6207;SDS011;3137;51.550;7.060;2023-08-01T06:56:45;25.70;;;15.43;;
6207;SDS011;3137;51.550;7.060;2023-08-01T06:59:14;25.33;;;15.60;;
6207;SDS011;3137;51.550;7.060;2023-08-01T07:01:41;24.53;;;15.13;;
6207;SDS011;3137;51.550;7.060;2023-08-01T07:04:10;30.93;;;17.00;;
6207;SDS011;3137;51.550;7.060;2023-08-01T07:06:37;25.77;;;14.23;;
6207;SDS011;3137;51.550;7.060;2023-08-01T07:09:04;22.83;;;15.00;;
6207;SDS011;3137;51.550;7.060;2023-08-01T07:11:30;21.67;;;14.47;;
6207;SDS011;3137;51.550;7.060;2023-08-01T07:13:57;36.23;;;15.07;;
6207;SDS011;3137;51.550;7.060;2023-08-01T07:16:23;20.97;;;13.57;;
6207;SDS011;3137;51.550;7.060;2023-08-01T07:18:50;26.30;;;14.90;;
6207;SDS011;3137;51.550;7.060;2023-08-01T07:21:17;22.73;;;13.57;;
6207;SDS011;3137;51.550;7.060;2023-08-01T07:23:43;29.40;;;14.43;;
6207;SDS011;3137;51.550;7.060;2023-08-01T07:26:09;16.63;;;12.93;;
6207;SDS011;3137;51.550;7.060;2023-08-01T07:28:36;17.87;;;14.67;;
6207;SDS011;3137;51.550;7.060;2023-08-01T07:31:04;20.97;;;14.57;;
6207;SDS011;3137;51.550;7.060;2023-08-01T07:33:32;24.13;;;15.13;;
6207;SDS011;3137;51.550;7.060;2023-08-01T07:35:59;25.23;;;14.03;;
6207;SDS011;3137;51.550;7.060;2023-08-01T07:38:26;25.43;;;14.20;;
6207;SDS011;3137;51.550;7.060;2023-08-01T07:41:01;18.77;;;12.90;;
6207;SDS011;3137;51.550;7.060;2023-08-01T07:43:30;24.23;;;13.87;;
6207;SDS011;3137;51.550;7.060;2023-08-01T07:45:57;16.60;;;13.07;;
6207;SDS011;3137;51.550;7.060;2023-08-01T07:48:24;22.20;;;13.33;;
6207;SDS011;3137;51.550;7.060;2023-08-01T07:50:51;18.63;;;12.10;;
6207;SDS011;3137;51.550;7.060;2023-08-01T07:53:17;17.70;;;13.33;;
6207;SDS011;3137;51.550;7.060;2023-08-01T07:55:44;19.13;;;12.43;;
6207;SDS011;3137;51.550;7.060;2023-08-01T07:58:10;23.20;;;12.53;;
6207;SDS011;3137;51.550;7.060;2023-08-01T08:00:37;19.77;;;12.07;;
6207;SDS011;3137;51.550;7.060;2023-08-01T08:03:04;19.47;;;12.27;;
6207;SDS011;3137;51.550;7.060;2023-08-01T08:05:32;14.33;;;10.97;;
6207;SDS011;3137;51.550;7.060;2023-08-01T08:07:58;12.47;;;10.47;;
6207;SDS011;3137;51.550;7.060;2023-08-01T08:10:25;24.77;;;10.97;;
6207;SDS011;3137;51.550;7.060;2023-08-01T08:12:51;10.73;;;9.60;;
6207;SDS011;3137;51.550;7.060;2023-08-01T08:15:17;11.73;;;10.03;;
6207;SDS011;3137;51.550;7.060;2023-08-01T08:17:45;15.53;;;10.33;;
6207;SDS011;3137;51.550;7.060;2023-08-01T08:20:12;13.77;;;10.17;;
6207;SDS011;3137;51.550;7.060;2023-08-01T08:22:38;16.30;;;10.63;;
6207;SDS011;3137;51.550;7.060;2023-08-01T08:25:05;10.00;;;9.40;;
6207;SDS011;3137;51.550;7.060;2023-08-01T08:27:31;12.43;;;11.23;;
6207;SDS011;3137;51.550;7.060;2023-08-01T08:29:58;10.93;;;10.03;;
6207;SDS011;3137;51.550;7.060;2023-08-01T08:32:24;22.50;;;10.73;;
6207;SDS011;3137;51.550;7.060;2023-08-01T08:34:50;16.87;;;10.63;;
6207;SDS011;3137;51.550;7.060;2023-08-01T08:37:17;13.83;;;10.93;;
6207;SDS011;3137;51.550;7.060;2023-08-01T08:39:43;12.20;;;9.77;;
6207;SDS011;3137;51.550;7.060;2023-08-01T08:42:10;13.23;;;10.90;;
6207;SDS011;3137;51.550;7.060;2023-08-01T08:44:41;11.10;;;10.30;;
6207;SDS011;3137;51.550;7.060;2023-08-01T08:47:10;14.13;;;11.67;;
6207;SDS011;3137;51.550;7.060;2023-08-01T08:49:38;19.03;;;10.60;;
6207;SDS011;3137;51.550;7.060;2023-08-01T08:52:06;18.60;;;11.53;;
6207;SDS011;3137;51.550;7.060;2023-08-01T08:54:33;10.33;;;9.73;;
6207;SDS011;3137;51.550;7.060;2023-08-01T08:57:01;12.17;;;10.67;;
6207;SDS011;3137;51.550;7.060;2023-08-01T08:59:32;11.77;;;10.70;;
6207;SDS011;3137;51.550;7.060;2023-08-01T09:01:59;15.17;;;10.13;;
6207;SDS011;3137;51.550;7.060;2023-08-01T09:04:27;16.10;;;10.00;;
6207;SDS011;3137;51.550;7.060;2023-08-01T09:06:55;14.03;;;9.33;;
6207;SDS011;3137;51.550;7.060;2023-08-01T09:09:27;13.73;;;9.80;;
6207;SDS011;3137;51.550;7.060;2023-08-01T09:11:54;11.47;;;10.47;;
6207;SDS011;3137;51.550;7.060;2023-08-01T09:14:24;10.70;;;9.60;;
6207;SDS011;3137;51.550;7.060;2023-08-01T09:16:50;10.93;;;9.97;;
6207;SDS011;3137;51.550;7.060;2023-08-01T09:19:17;9.97;;;9.07;;
6207;SDS011;3137;51.550;7.060;2023-08-01T09:21:44;9.70;;;8.10;;
6207;SDS011;3137;51.550;7.060;2023-08-01T09:24:12;15.90;;;9.43;;
6207;SDS011;3137;51.550;7.060;2023-08-01T09:26:44;13.57;;;9.53;;
6207;SDS011;3137;51.550;7.060;2023-08-01T09:29:11;11.77;;;9.30;;
6207;SDS011;3137;51.550;7.060;2023-08-01T09:31:39;10.90;;;8.70;;
6207;SDS011;3137;51.550;7.060;2023-08-01T09:34:19;8.97;;;8.23;;
6207;SDS011;3137;51.550;7.060;2023-08-01T09:36:48;8.80;;;8.20;;
6207;SDS011;3137;51.550;7.060;2023-08-01T09:39:18;12.03;;;8.33;;
6207;SDS011;3137;51.550;7.060;2023-08-01T09:41:46;9.43;;;8.57;;
6207;SDS011;3137;51.550;7.060;2023-08-01T09:44:21;8.60;;;7.97;;
6207;SDS011;3137;51.550;7.060;2023-08-01T09:46:57;7.67;;;7.17;;
6207;SDS011;3137;51.550;7.060;2023-08-01T09:49:29;8.47;;;7.80;;
6207;SDS011;3137;51.550;7.060;2023-08-01T09:51:57;7.77;;;7.27;;
6207;SDS011;3137;51.550;7.060;2023-08-01T09:54:24;9.53;;;7.67;;
6207;SDS011;3137;51.550;7.060;2023-08-01T09:56:52;7.97;;;7.07;;
6207;SDS011;3137;51.550;7.060;2023-08-01T09:59:20;7.83;;;7.27;;
6207;SDS011;3137;51.550;7.060;2023-08-01T10:01:48;11.13;;;7.30;;
6207;SDS011;3137;51.550;7.060;2023-08-01T10:04:34;8.40;;;8.07;;
6207;SDS011;3137;51.550;7.060;2023-08-01T10:07:08;9.33;;;6.97;;
6207;SDS011;3137;51.550;7.060;2023-08-01T10:09:37;7.40;;;6.70;;
6207;SDS011;3137;51.550;7.060;2023-08-01T10:12:04;7.33;;;7.00;;
6207;SDS011;3137;51.550;7.060;2023-08-01T10:14:32;6.27;;;6.03;;
6207;SDS011;3137;51.550;7.060;2023-08-01T10:16:59;11.03;;;7.00;;
6207;SDS011;3137;51.550;7.060;2023-08-01T10:19:27;6.80;;;6.60;;
6207;SDS011;3137;51.550;7.060;2023-08-01T10:21:59;11.43;;;6.93;;
6207;SDS011;3137;51.550;7.060;2023-08-01T10:24:26;6.43;;;6.03;;
6207;SDS011;3137;51.550;7.060;2023-08-01T10:26:55;7.20;;;6.67;;
6207;SDS011;3137;51.550;7.060;2023-08-01T10:29:21;10.90;;;6.03;;
6207;SDS011;3137;51.550;7.060;2023-08-01T10:31:51;11.00;;;6.10;;
6207;SDS011;3137;51.550;7.060;2023-08-01T10:34:19;8.97;;;5.73;;
6207;SDS011;3137;51.550;7.060;2023-08-01T10:36:57;6.40;;;6.30;;
6207;SDS011;3137;51.550;7.060;2023-08-01T10:39:25;6.60;;;6.23;;
6207;SDS011;3137;51.550;7.060;2023-08-01T10:42:04;6.37;;;6.07;;
6207;SDS011;3137;51.550;7.060;2023-08-01T10:44:32;6.20;;;5.70;;
6207;SDS011;3137;51.550;7.060;2023-08-01T10:47:01;6.27;;;5.83;;
6207;SDS011;3137;51.550;7.060;2023-08-01T10:49:38;15.97;;;6.27;;
6207;SDS011;3137;51.550;7.060;2023-08-01T10:52:19;6.27;;;5.60;;
6207;SDS011;3137;51.550;7.060;2023-08-01T10:54:57;10.97;;;6.93;;
6207;SDS011;3137;51.550;7.060;2023-08-01T10:57:30;7.30;;;6.53;;
6207;SDS011;3137;51.550;7.060;2023-08-01T10:59:57;8.30;;;7.57;;
6207;SDS011;3137;51.550;7.060;2023-08-01T11:02:25;9.83;;;6.30;;
6207;SDS011;3137;51.550;7.060;2023-08-01T11:05:06;11.40;;;6.90;;
6207;SDS011;3137;51.550;7.060;2023-08-01T11:07:34;12.73;;;6.93;;
6207;SDS011;3137;51.550;7.060;2023-08-01T11:10:13;8.73;;;6.87;;
6207;SDS011;3137;51.550;7.060;2023-08-01T11:12:40;6.47;;;6.23;;
6207;SDS011;3137;51.550;7.060;2023-08-01T11:15:08;7.47;;;5.97;;
6207;SDS011;3137;51.550;7.060;2023-08-01T11:17:37;7.13;;;6.87;;
6207;SDS011;3137;51.550;7.060;2023-08-01T11:20:05;14.73;;;5.80;;
6207;SDS011;3137;51.550;7.060;2023-08-01T11:22:36;15.63;;;6.20;;
6207;SDS011;3137;51.550;7.060;2023-08-01T11:25:04;6.70;;;6.30;;
6207;SDS011;3137;51.550;7.060;2023-08-01T11:27:31;6.20;;;5.80;;
6207;SDS011;3137;51.550;7.060;2023-08-01T11:29:58;6.93;;;6.10;;
6207;SDS011;3137;51.550;7.060;2023-08-01T11:32:34;5.70;;;5.40;;
6207;SDS011;3137;51.550;7.060;2023-08-01T11:35:02;5.77;;;5.47;;
6207;SDS011;3137;51.550;7.060;2023-08-01T11:37:29;8.37;;;4.63;;
6207;SDS011;3137;51.550;7.060;2023-08-01T11:39:56;4.60;;;4.40;;
6207;SDS011;3137;51.550;7.060;2023-08-01T11:42:24;4.10;;;3.97;;
6207;SDS011;3137;51.550;7.060;2023-08-01T11:44:50;4.00;;;3.90;;
6207;SDS011;3137;51.550;7.060;2023-08-01T11:47:17;3.93;;;3.93;;
6207;SDS011;3137;51.550;7.060;2023-08-01T11:49:46;3.83;;;3.73;;
6207;SDS011;3137;51.550;7.060;2023-08-01T11:52:26;3.23;;;3.13;;
6207;SDS011;3137;51.550;7.060;2023-08-01T11:54:54;3.63;;;3.43;;
6207;SDS011;3137;51.550;7.060;2023-08-01T11:57:21;5.20;;;3.50;;
6207;SDS011;3137;51.550;7.060;2023-08-01T11:59:49;3.97;;;3.77;;
6207;SDS011;3137;51.550;7.060;2023-08-01T12:04:53;3.43;;;3.23;;
6207;SDS011;3137;51.550;7.060;2023-08-01T12:07:20;5.03;;;3.90;;
6207;SDS011;3137;51.550;7.060;2023-08-01T12:09:56;3.73;;;3.63;;
6207;SDS011;3137;51.550;7.060;2023-08-01T12:12:23;3.73;;;3.53;;
6207;SDS011;3137;51.550;7.060;2023-08-01T12:14:50;4.20;;;4.10;;
6207;SDS011;3137;51.550;7.060;2023-08-01T12:17:16;3.67;;;3.47;;
6207;SDS011;3137;51.550;7.060;2023-08-01T12:19:43;3.40;;;3.30;;
6207;SDS011;3137;51.550;7.060;2023-08-01T12:22:09;3.90;;;3.57;;
6207;SDS011;3137;51.550;7.060;2023-08-01T12:24:36;6.83;;;3.87;;
6207;SDS011;3137;51.550;7.060;2023-08-01T12:27:07;8.00;;;4.10;;
6207;SDS011;3137;51.550;7.060;2023-08-01T12:29:34;4.50;;;3.40;;
6207;SDS011;3137;51.550;7.060;2023-08-01T12:32:02;3.60;;;3.30;;
6207;SDS011;3137;51.550;7.060;2023-08-01T12:34:29;3.40;;;3.20;;
6207;SDS011;3137;51.550;7.060;2023-08-01T12:36:55;7.17;;;4.13;;
6207;SDS011;3137;51.550;7.060;2023-08-01T12:39:22;4.03;;;3.80;;
6207;SDS011;3137;51.550;7.060;2023-08-01T12:41:54;4.60;;;4.17;;
6207;SDS011;3137;51.550;7.060;2023-08-01T12:44:21;4.77;;;4.60;;
6207;SDS011;3137;51.550;7.060;2023-08-01T12:46:48;3.93;;;3.83;;
6207;SDS011;3137;51.550;7.060;2023-08-01T12:49:14;13.27;;;4.30;;
6207;SDS011;3137;51.550;7.060;2023-08-01T12:51:41;4.80;;;4.53;;
6207;SDS011;3137;51.550;7.060;2023-08-01T12:54:07;8.83;;;4.17;;
6207;SDS011;3137;51.550;7.060;2023-08-01T12:56:34;3.73;;;3.63;;
6207;SDS011;3137;51.550;7.060;2023-08-01T12:59:00;5.80;;;4.50;;
6207;SDS011;3137;51.550;7.060;2023-08-01T13:01:27;4.53;;;4.43;;
6207;SDS011;3137;51.550;7.060;2023-08-01T13:03:53;3.90;;;3.70;;
6207;SDS011;3137;51.550;7.060;2023-08-01T13:06:20;4.40;;;4.17;;
6207;SDS011;3137;51.550;7.060;2023-08-01T13:08:46;5.03;;;3.50;;
6207;SDS011;3137;51.550;7.060;2023-08-01T13:11:13;7.40;;;3.93;;
6207;SDS011;3137;51.550;7.060;2023-08-01T13:13:40;5.93;;;3.93;;
6207;SDS011;3137;51.550;7.060;2023-08-01T13:16:08;3.67;;;3.43;;
6207;SDS011;3137;51.550;7.060;2023-08-01T13:18:35;5.13;;;3.20;;
6207;SDS011;3137;51.550;7.060;2023-08-01T13:21:01;3.37;;;3.17;;
6207;SDS011;3137;51.550;7.060;2023-08-01T13:23:28;3.57;;;3.47;;
6207;SDS011;3137;51.550;7.060;2023-08-01T13:25:54;2.43;;;2.20;;
6207;SDS011;3137;51.550;7.060;2023-08-01T13:28:20;4.10;;;3.07;;
6207;SDS011;3137;51.550;7.060;2023-08-01T13:30:47;2.47;;;2.43;;
6207;SDS011;3137;51.550;7.060;2023-08-01T13:33:13;5.50;;;3.60;;
6207;SDS011;3137;51.550;7.060;2023-08-01T13:35:40;4.00;;;3.80;;
6207;SDS011;3137;51.550;7.060;2023-08-01T13:38:06;2.97;;;2.97;;
6207;SDS011;3137;51.550;7.060;2023-08-01T13:40:33;3.33;;;3.27;;
6207;SDS011;3137;51.550;7.060;2023-08-01T13:43:01;5.50;;;3.13;;
6207;SDS011;3137;51.550;7.060;2023-08-01T13:45:29;3.53;;;3.40;;
6207;SDS011;3137;51.550;7.060;2023-08-01T13:47:57;9.10;;;3.27;;
6207;SDS011;3137;51.550;7.060;2023-08-01T13:50:25;4.27;;;3.37;;
6207;SDS011;3137;51.550;7.060;2023-08-01T13:52:52;3.10;;;3.10;;
6207;SDS011;3137;51.550;7.060;2023-08-01T13:55:19;4.13;;;3.80;;
6207;SDS011;3137;51.550;7.060;2023-08-01T13:57:45;6.93;;;3.40;;
6207;SDS011;3137;51.550;7.060;2023-08-01T14:00:12;5.07;;;3.30;;
6207;SDS011;3137;51.550;7.060;2023-08-01T14:02:42;2.83;;;2.80;;
6207;SDS011;3137;51.550;7.060;2023-08-01T14:05:08;2.97;;;2.70;;
6207;SDS011;3137;51.550;7.060;2023-08-01T14:07:36;3.13;;;3.03;;
6207;SDS011;3137;51.550;7.060;2023-08-01T14:10:09;2.60;;;2.50;;
6207;SDS011;3137;51.550;7.060;2023-08-01T14:12:36;7.60;;;3.17;;
6207;SDS011;3137;51.550;7.060;2023-08-01T14:15:03;3.17;;;2.87;;
6207;SDS011;3137;51.550;7.060;2023-08-01T14:17:29;3.97;;;2.83;;
6207;SDS011;3137;51.550;7.060;2023-08-01T14:19:56;7.10;;;2.70;;
6207;SDS011;3137;51.550;7.060;2023-08-01T14:22:22;3.10;;;2.77;;
6207;SDS011;3137;51.550;7.060;2023-08-01T14:24:49;2.53;;;2.43;;
6207;SDS011;3137;51.550;7.060;2023-08-01T14:27:15;2.90;;;2.80;;
6207;SDS011;3137;51.550;7.060;2023-08-01T14:29:42;2.90;;;2.70;;
6207;SDS011;3137;51.550;7.060;2023-08-01T14:32:08;3.50;;;3.40;;
6207;SDS011;3137;51.550;7.060;2023-08-01T14:34:35;3.07;;;2.97;;
6207;SDS011;3137;51.550;7.060;2023-08-01T14:37:01;3.17;;;3.07;;
6207;SDS011;3137;51.550;7.060;2023-08-01T14:39:28;3.33;;;3.13;;
6207;SDS011;3137;51.550;7.060;2023-08-01T14:41:55;3.40;;;3.23;;
6207;SDS011;3137;51.550;7.060;2023-08-01T14:44:24;3.30;;;3.07;;
6207;SDS011;3137;51.550;7.060;2023-08-01T14:46:51;5.40;;;3.23;;
6207;SDS011;3137;51.550;7.060;2023-08-01T14:49:17;3.20;;;2.87;;
6207;SDS011;3137;51.550;7.060;2023-08-01T14:51:44;2.50;;;2.40;;
6207;SDS011;3137;51.550;7.060;2023-08-01T14:54:10;3.40;;;3.20;;
6207;SDS011;3137;51.550;7.060;2023-08-01T14:56:40;6.80;;;3.37;;
6207;SDS011;3137;51.550;7.060;2023-08-01T14:59:07;3.30;;;3.07;;
6207;SDS011;3137;51.550;7.060;2023-08-01T15:01:33;3.47;;;3.40;;
6207;SDS011;3137;51.550;7.060;2023-08-01T15:04:00;3.77;;;3.57;;
6207;SDS011;3137;51.550;7.060;2023-08-01T15:06:26;7.00;;;2.93;;